Time;durP1;ratioP1;P1;durP2;ratioP2;P2;SDS_P1;SDS_P2;PMS_P1;PMS_P2;Temp;Humidity;BMP_temperature;BMP_pressure;BME280_temperature;BME280_humidity;BME280_pressure;Samples;Min_cycle;Max_cycle;Signal;HPM_P1;HPM_P2
2021/11/01 00:00:07;;;;;;;22.50;20.20;;;10.60;1.00;;;;;;5120929;27;20452;-80
2021/11/01 00:02:34;;;;;;;21.97;19.83;;;10.40;1.00;;;;;;5115755;27;20458;-80
2021/11/01 00:05:01;;;;;;;24.10;20.77;;;10.40;1.00;;;;;;5122840;27;20462;-80
2021/11/01 00:07:28;;;;;;;24.60;21.90;;;10.40;1.00;;;;;;5120846;27;20472;-80
2021/11/01 00:09:55;;;;;;;22.63;20.30;;;10.30;1.00;;;;;;5116091;27;20450;-80
2021/11/01 00:12:26;;;;;;;23.20;20.73;;;10.30;1.00;;;;;;5121875;27;20490;-79
2021/11/01 00:14:54;;;;;;;23.40;20.37;;;10.30;1.00;;;;;;5106431;27;20448;-80
2021/11/01 00:17:22;;;;;;;21.97;19.67;;;10.20;1.00;;;;;;5123608;27;20440;-80
2021/11/01 00:19:48;;;;;;;22.07;19.83;;;10.20;1.00;;;;;;5153414;27;20455;-79
2021/11/01 00:22:15;;;;;;;23.80;21.43;;;10.20;1.00;;;;;;5126417;27;21215;-79
2021/11/01 00:24:42;;;;;;;24.03;20.53;;;10.20;1.00;;;;;;5119910;27;20466;-80
2021/11/01 00:27:09;;;;;;;24.20;20.63;;;10.10;1.00;;;;;;5114556;27;20510;-80
2021/11/01 00:29:35;;;;;;;21.37;19.07;;;10.10;1.00;;;;;;5118262;27;20455;-80
2021/11/01 00:32:04;;;;;;;24.52;21.55;;;10.10;1.00;;;;;;5119747;27;21575;-80
2021/11/01 00:34:30;;;;;;;22.70;20.30;;;10.10;1.00;;;;;;5117549;27;21240;-80
2021/11/01 00:36:57;;;;;;;22.73;20.07;;;10.00;1.00;;;;;;5117077;27;20448;-79
2021/11/01 00:39:24;;;;;;;23.50;21.20;;;10.00;1.00;;;;;;5128602;27;20451;-80
2021/11/01 00:41:51;;;;;;;24.48;21.65;;;10.00;1.00;;;;;;5099080;27;20791;-80
2021/11/01 00:44:18;;;;;;;24.50;21.77;;;10.00;1.00;;;;;;5108307;27;20242;-78
2021/11/01 00:46:44;;;;;;;23.50;21.03;;;9.90;1.00;;;;;;5117803;27;20229;-81
2021/11/01 00:49:13;;;;;;;24.10;21.60;;;9.90;1.00;;;;;;5120563;27;20462;-82
2021/11/01 00:51:42;;;;;;;23.97;21.47;;;9.90;1.00;;;;;;5121648;27;20440;-80
2021/11/01 00:54:09;;;;;;;26.30;21.30;;;9.90;1.00;;;;;;5119033;27;21282;-80
2021/11/01 00:56:35;;;;;;;25.95;22.10;;;9.90;1.00;;;;;;5119883;27;20450;-81
2021/11/01 00:59:02;;;;;;;24.07;21.50;;;9.90;1.00;;;;;;5118684;27;20225;-79
2021/11/01 01:01:32;;;;;;;24.55;22.05;;;9.90;1.00;;;;;;5121210;27;21203;-80
2021/11/01 01:03:58;;;;;;;22.97;20.53;;;9.90;1.00;;;;;;5117924;27;20233;-80
2021/11/01 01:06:28;;;;;;;22.55;20.15;;;9.90;1.00;;;;;;5119766;27;20447;-80
2021/11/01 01:08:55;;;;;;;24.00;21.23;;;9.90;1.00;;;;;;5119155;27;21133;-80
2021/11/01 01:11:21;;;;;;;24.23;21.70;;;9.90;1.00;;;;;;5120028;27;20409;-80
2021/11/01 01:13:51;;;;;;;23.70;21.25;;;9.90;1.00;;;;;;5118167;27;20505;-80
2021/11/01 01:16:24;;;;;;;23.40;20.90;;;9.90;1.00;;;;;;5123968;27;20215;-80
2021/11/01 01:18:52;;;;;;;24.23;21.63;;;9.90;1.00;;;;;;5121673;27;21702;-79
2021/11/01 01:24:05;;;;;;;23.13;20.63;;;9.90;1.00;;;;;;5148982;27;20299;-80
2021/11/01 01:26:33;;;;;;;26.93;24.00;;;9.90;1.00;;;;;;5131404;27;20500;-80
2021/11/01 01:29:00;;;;;;;24.08;21.48;;;9.90;1.00;;;;;;5133584;27;20516;-80
2021/11/01 01:31:27;;;;;;;27.92;22.17;;;9.90;1.00;;;;;;5122836;27;20289;-81
2021/11/01 01:33:54;;;;;;;24.10;21.50;;;9.80;1.00;;;;;;5121336;27;20316;-80
2021/11/01 01:36:21;;;;;;;23.43;21.03;;;9.80;1.00;;;;;;5122250;27;20455;-78
2021/11/01 01:38:48;;;;;;;25.73;21.93;;;9.80;1.00;;;;;;5119219;27;20460;-79
2021/11/01 01:41:18;;;;;;;23.60;20.73;;;9.80;1.00;;;;;;5120648;27;21713;-77
2021/11/01 01:43:46;;;;;;;25.50;22.88;;;9.80;1.00;;;;;;5121500;27;20310;-79
2021/11/01 01:46:13;;;;;;;22.17;19.87;;;9.80;1.00;;;;;;5117336;27;20257;-79
2021/11/01 01:48:39;;;;;;;24.10;21.60;;;9.80;1.00;;;;;;5129219;27;20450;-79
2021/11/01 01:51:06;;;;;;;23.77;21.30;;;9.80;1.00;;;;;;5103320;27;20930;-81
2021/11/01 01:53:33;;;;;;;24.47;21.70;;;9.80;1.00;;;;;;5096540;27;20427;-80
2021/11/01 01:56:00;;;;;;;25.27;22.40;;;9.80;1.00;;;;;;5103139;27;20477;-79
2021/11/01 01:58:36;;;;;;;24.47;21.83;;;9.80;1.00;;;;;;5117851;27;20461;-80
2021/11/01 02:01:08;;;;;;;25.52;22.35;;;9.90;1.00;;;;;;5117681;27;20467;-79
2021/11/01 02:03:36;;;;;;;24.00;21.50;;;9.90;1.00;;;;;;5121752;27;20281;-79
2021/11/01 02:06:09;;;;;;;24.70;21.67;;;9.90;1.00;;;;;;5114547;27;20572;-80
2021/11/01 02:08:41;;;;;;;24.93;22.33;;;9.90;1.00;;;;;;5117890;27;20460;-81
2021/11/01 02:11:13;;;;;;;23.60;21.10;;;9.80;1.00;;;;;;5123267;27;20441;-80
2021/11/01 02:13:44;;;;;;;26.23;22.17;;;9.90;1.00;;;;;;5113303;27;20306;-81
2021/11/01 02:16:13;;;;;;;26.17;22.87;;;9.80;1.00;;;;;;5125211;27;20449;-80
2021/11/01 02:18:44;;;;;;;24.83;22.20;;;9.80;1.00;;;;;;5137241;27;20444;-79
2021/11/01 02:21:25;;;;;;;25.85;23.17;;;9.80;1.00;;;;;;5122963;27;20276;-79
2021/11/01 02:24:00;;;;;;;25.97;23.33;;;9.80;1.00;;;;;;5132040;27;20218;-81
2021/11/01 02:26:29;;;;;;;26.13;22.53;;;9.70;1.00;;;;;;5132273;27;20470;-79
2021/11/01 02:28:56;;;;;;;26.33;23.20;;;9.70;1.00;;;;;;5124923;27;20412;-79
2021/11/01 02:31:23;;;;;;;25.87;23.07;;;9.70;1.00;;;;;;5111987;27;22347;-80
2021/11/01 02:33:51;;;;;;;25.73;21.20;;;9.70;1.00;;;;;;5105967;27;20464;-80
2021/11/01 02:36:18;;;;;;;24.87;22.20;;;9.70;1.00;;;;;;5100021;27;23085;-79
2021/11/01 02:38:49;;;;;;;23.03;20.57;;;9.80;1.00;;;;;;5120353;27;20554;-80
2021/11/01 02:41:21;;;;;;;24.17;21.57;;;9.70;1.00;;;;;;5101819;27;20429;-80
2021/11/01 02:43:53;;;;;;;25.70;21.70;;;9.70;1.00;;;;;;5116463;27;20446;-79
2021/11/01 02:46:20;;;;;;;25.63;22.93;;;9.80;1.00;;;;;;5120167;27;20460;-79
2021/11/01 02:48:47;;;;;;;25.97;22.83;;;9.70;1.00;;;;;;5116997;27;21426;-79
2021/11/01 02:51:15;;;;;;;25.60;22.87;;;9.70;1.00;;;;;;5099337;27;21257;-79
2021/11/01 02:53:43;;;;;;;24.30;21.53;;;9.70;1.00;;;;;;5118035;27;20455;-79
2021/11/01 02:56:10;;;;;;;26.37;23.60;;;9.70;1.00;;;;;;5116743;27;20476;-79
2021/11/01 02:58:39;;;;;;;25.47;22.67;;;9.70;1.00;;;;;;5121237;27;20443;-79
2021/11/01 03:01:08;;;;;;;28.02;22.90;;;9.60;1.00;;;;;;5117244;27;20428;-79
2021/11/01 03:03:35;;;;;;;26.73;23.87;;;9.60;1.00;;;;;;5119175;27;20219;-79
2021/11/01 03:06:02;;;;;;;25.30;22.65;;;9.60;1.00;;;;;;5118636;27;20525;-80
2021/11/01 03:08:30;;;;;;;26.40;23.60;;;9.60;1.00;;;;;;5119005;27;20931;-80
2021/11/01 03:10:58;;;;;;;26.73;23.97;;;9.60;1.00;;;;;;5116399;27;20438;-80
2021/11/01 03:13:26;;;;;;;25.50;22.77;;;9.60;1.00;;;;;;5118790;27;21409;-80
2021/11/01 03:15:55;;;;;;;25.83;23.00;;;9.60;1.00;;;;;;5119842;27;20451;-80
2021/11/01 03:18:26;;;;;;;26.80;22.77;;;9.60;1.00;;;;;;5128798;27;20230;-82
2021/11/01 03:20:54;;;;;;;26.90;23.48;;;9.60;1.00;;;;;;5145393;27;21113;-81
2021/11/01 03:23:33;;;;;;;25.60;22.90;;;9.50;1.00;;;;;;5143263;27;20431;-81
2021/11/01 03:26:02;;;;;;;25.20;22.40;;;9.60;1.00;;;;;;5126824;27;20484;-80
2021/11/01 03:28:30;;;;;;;25.20;22.52;;;9.60;1.00;;;;;;5117804;27;20965;-81
2021/11/01 03:30:59;;;;;;;24.50;21.90;;;9.50;1.00;;;;;;5117993;27;20770;-80
2021/11/01 03:33:34;;;;;;;31.83;24.40;;;9.50;1.00;;;;;;5122111;27;20226;-78
2021/11/01 03:36:02;;;;;;;25.70;22.87;;;9.60;1.00;;;;;;5114020;27;20452;-79
2021/11/01 03:38:30;;;;;;;28.08;22.90;;;9.50;1.00;;;;;;5111418;27;20497;-80
2021/11/01 03:40:57;;;;;;;25.80;23.00;;;9.50;1.00;;;;;;5115617;27;20229;-79
2021/11/01 03:43:28;;;;;;;25.80;23.03;;;9.40;1.00;;;;;;5093225;27;21514;-79
2021/11/01 03:45:56;;;;;;;30.42;24.92;;;9.40;1.00;;;;;;5114308;27;20473;-78
2021/11/01 03:48:23;;;;;;;26.93;24.07;;;9.40;1.00;;;;;;5121700;27;20226;-80
2021/11/01 03:51:00;;;;;;;28.33;24.35;;;9.40;1.00;;;;;;5114524;27;20463;-79
2021/11/01 03:53:26;;;;;;;26.70;23.92;;;9.40;1.00;;;;;;5115777;27;20517;-80
2021/11/01 03:55:53;;;;;;;25.83;22.80;;;9.40;1.00;;;;;;5113909;27;21146;-80
2021/11/01 03:58:20;;;;;;;25.05;22.38;;;9.40;1.00;;;;;;5117600;27;20449;-80
2021/11/01 04:00:47;;;;;;;28.30;24.92;;;9.40;1.00;;;;;;5122136;27;20223;-80
2021/11/01 04:03:13;;;;;;;26.77;23.90;;;9.40;1.00;;;;;;5125444;27;20260;-79
2021/11/01 04:05:40;;;;;;;26.45;23.60;;;9.30;1.00;;;;;;5121537;27;20976;-80
2021/11/01 04:08:08;;;;;;;26.35;23.55;;;9.30;1.00;;;;;;5106403;27;20271;-79
2021/11/01 04:10:35;;;;;;;28.05;25.05;;;9.30;1.00;;;;;;5120618;27;20225;-80
2021/11/01 04:13:01;;;;;;;27.63;24.73;;;9.30;1.00;;;;;;5120084;27;20236;-81
2021/11/01 04:15:28;;;;;;;28.13;24.55;;;9.40;1.00;;;;;;5120443;27;20263;-80
2021/11/01 04:17:57;;;;;;;28.50;25.40;;;9.30;1.00;;;;;;5115516;27;20216;-80
2021/11/01 04:20:38;;;;;;;28.63;25.17;;;9.40;1.00;;;;;;5114386;27;20488;-80
2021/11/01 04:23:05;;;;;;;28.88;25.20;;;9.40;1.00;;;;;;5151901;27;20253;-80
2021/11/01 04:25:34;;;;;;;28.42;25.33;;;9.30;1.00;;;;;;5154131;27;20229;-79
2021/11/01 04:28:01;;;;;;;28.83;25.73;;;9.30;1.00;;;;;;5147082;27;20283;-80
2021/11/01 04:30:33;;;;;;;29.05;25.33;;;9.30;1.00;;;;;;5101022;27;20231;-80
2021/11/01 04:33:02;;;;;;;28.70;25.60;;;9.30;1.00;;;;;;5118405;27;20254;-81
2021/11/01 04:35:34;;;;;;;28.93;25.53;;;9.40;1.00;;;;;;5120746;27;20698;-80
2021/11/01 04:38:04;;;;;;;30.42;25.52;;;9.30;1.00;;;;;;5123744;27;20487;-79
2021/11/01 04:40:45;;;;;;;30.35;26.42;;;9.30;1.00;;;;;;5109094;27;20236;-80
2021/11/01 04:43:53;;;;;;;29.20;25.87;;;9.30;1.00;;;;;;5126470;27;20283;-80
2021/11/01 04:54:33;;;;;;;29.50;26.40;;;9.30;1.00;;;;;;5121773;27;20230;-79
2021/11/01 04:57:00;;;;;;;28.30;25.20;;;9.30;1.00;;;;;;5124188;27;20889;-79
2021/11/01 04:59:28;;;;;;;31.17;26.75;;;9.30;1.00;;;;;;5119815;27;20574;-80
2021/11/01 05:01:55;;;;;;;30.43;26.70;;;9.30;1.00;;;;;;5122251;27;20216;-79
2021/11/01 05:04:24;;;;;;;29.83;25.17;;;9.30;1.00;;;;;;5119344;27;21184;-79
2021/11/01 05:06:53;;;;;;;33.50;26.83;;;9.30;1.00;;;;;;5117687;27;20546;-81
2021/11/01 05:09:25;;;;;;;31.53;27.77;;;9.40;1.00;;;;;;5122495;27;20776;-79
2021/11/01 05:12:05;;;;;;;27.60;24.08;;;9.30;1.00;;;;;;5103678;27;20545;-79
2021/11/01 05:14:37;;;;;;;27.70;24.70;;;9.30;1.00;;;;;;5104318;27;20877;-82
2021/11/01 05:17:23;;;;;;;29.65;26.30;;;9.30;1.00;;;;;;5119718;27;20440;-79
2021/11/01 05:19:56;;;;;;;29.83;26.60;;;9.30;1.00;;;;;;5114655;27;21003;-80
2021/11/01 05:22:28;;;;;;;28.75;24.52;;;9.30;1.00;;;;;;5101950;27;20415;-80
2021/11/01 05:24:59;;;;;;;31.80;25.67;;;9.20;1.00;;;;;;5141722;27;20221;-82
2021/11/01 05:27:43;;;;;;;28.83;25.80;;;9.30;1.00;;;;;;5151049;27;20402;-84
2021/11/01 05:30:15;;;;;;;29.02;26.02;;;9.30;1.00;;;;;;5125596;27;20627;-81
2021/11/01 05:32:52;;;;;;;31.40;27.08;;;9.30;1.00;;;;;;5124077;27;20228;-82
2021/11/01 05:35:19;;;;;;;27.87;24.90;;;9.30;1.00;;;;;;5121936;27;20217;-82
2021/11/01 05:37:47;;;;;;;30.33;26.13;;;9.40;1.00;;;;;;5124555;27;20435;-82
2021/11/01 05:40:14;;;;;;;29.20;26.07;;;9.40;1.00;;;;;;5103460;27;21195;-81
2021/11/01 05:42:42;;;;;;;29.15;26.10;;;9.40;1.00;;;;;;5122363;27;20398;-84
2021/11/01 05:45:11;;;;;;;28.90;25.77;;;9.50;1.00;;;;;;5122723;27;20235;-81
2021/11/01 05:47:43;;;;;;;30.45;25.95;;;9.50;1.00;;;;;;5132671;27;20404;-83
2021/11/01 05:50:11;;;;;;;27.33;24.20;;;9.60;1.00;;;;;;5130538;27;20209;-84
2021/11/01 05:52:38;;;;;;;28.43;25.27;;;9.70;1.00;;;;;;5129150;27;20943;-84
2021/11/01 05:55:12;;;;;;;29.20;25.93;;;9.70;1.00;;;;;;5112043;27;20476;-80
2021/11/01 05:57:48;;;;;;;28.93;25.13;;;9.80;1.00;;;;;;5123558;27;22326;-82
2021/11/01 06:00:35;;;;;;;34.17;27.30;;;9.80;1.00;;;;;;5124542;27;20977;-81
2021/11/01 06:03:05;;;;;;;29.83;26.63;;;9.80;1.00;;;;;;5130465;27;20442;-81
2021/11/01 06:05:56;;;;;;;31.17;27.00;;;9.90;1.00;;;;;;5133094;27;20440;-82
2021/11/01 06:08:28;;;;;;;29.73;26.53;;;10.00;1.00;;;;;;5123888;27;20456;-81
2021/11/01 06:13:40;;;;;;;28.00;24.73;;;10.10;1.00;;;;;;5130923;27;21389;-84
2021/11/01 06:16:09;;;;;;;32.90;26.30;;;10.10;1.00;;;;;;5134231;27;20461;-82
2021/11/01 06:18:40;;;;;;;29.10;25.17;;;10.20;1.00;;;;;;5130216;27;20544;-82
2021/11/01 06:21:12;;;;;;;30.03;26.30;;;10.20;1.00;;;;;;5114292;27;20461;-83
2021/11/01 06:23:42;;;;;;;30.43;26.40;;;10.20;1.00;;;;;;5127031;27;20482;-83
2021/11/01 06:26:09;;;;;;;32.10;25.93;;;10.20;1.00;;;;;;5131444;27;20568;-81
2021/11/01 06:28:40;;;;;;;29.97;26.87;;;10.20;1.00;;;;;;5125122;27;20465;-83
2021/11/01 06:31:11;;;;;;;31.23;27.40;;;10.30;1.00;;;;;;5131184;27;20445;-84
2021/11/01 06:39:24;;;;;;;30.07;26.97;;;10.40;1.00;;;;;;5125755;27;20397;-82
2021/11/01 06:44:46;;;;;;;33.03;27.43;;;10.40;1.00;;;;;;5128689;27;20428;-83
2021/11/01 06:50:04;;;;;;;30.50;25.93;;;10.60;1.00;;;;;;5119773;27;20437;-83
2021/11/01 06:52:55;;;;;;;28.50;25.40;;;10.60;1.00;;;;;;5135437;27;20537;-82
2021/11/01 06:58:29;;;;;;;31.17;27.00;;;10.80;1.00;;;;;;5127591;27;21631;-80
2021/11/01 07:14:56;;;;;;;27.97;25.00;;;11.40;1.00;;;;;;5134096;27;20452;-81
2021/11/01 07:17:34;;;;;;;30.50;26.03;;;11.50;1.00;;;;;;5134797;27;20471;-81
2021/11/01 07:20:15;;;;;;;28.80;25.87;;;11.50;1.00;;;;;;5131040;27;21349;-81
2021/11/01 08:35:12;;;;;;;28.97;25.53;;;12.40;1.00;;;;;;5123906;27;20453;-76
2021/11/01 08:38:10;;;;;;;29.13;26.17;;;12.40;1.00;;;;;;5124183;27;20456;-76
2021/11/01 08:43:39;;;;;;;33.57;28.60;;;12.50;1.00;;;;;;5125978;27;20498;-75
2021/11/01 08:46:17;;;;;;;30.40;26.27;;;12.60;1.00;;;;;;5120891;27;20476;-76
2021/11/01 08:48:54;;;;;;;30.40;27.20;;;12.70;1.00;;;;;;5138051;27;20408;-75
2021/11/01 09:05:30;;;;;;;28.63;25.63;;;13.40;1.00;;;;;;5132144;27;20578;-75
2021/11/01 09:09:44;;;;;;;30.83;27.70;;;13.40;1.00;;;;;;5129746;27;20461;-77
2021/11/01 09:19:50;;;;;;;27.20;24.30;;;13.50;1.00;;;;;;5123015;27;20458;-77
2021/11/01 09:25:22;;;;;;;29.80;26.07;;;13.40;1.00;;;;;;5129323;27;20436;-77
2021/11/01 09:28:03;;;;;;;26.63;23.93;;;13.50;1.00;;;;;;5120721;27;21188;-77
2021/11/01 09:35:48;;;;;;;26.87;24.03;;;13.60;1.00;;;;;;5122447;27;20440;-77
2021/11/01 09:36:19;;;;;;;25.07;22.40;;;13.60;1.00;;;;;;5119155;27;21318;-75
2021/11/01 09:39:02;;;;;;;26.30;22.63;;;13.60;1.00;;;;;;5127114;27;20449;-75
2021/11/01 09:41:30;;;;;;;25.67;23.07;;;13.70;1.00;;;;;;5122633;27;20590;-77
2021/11/01 09:43:58;;;;;;;25.50;22.37;;;13.70;1.00;;;;;;5128310;27;21383;-76
2021/11/01 09:46:28;;;;;;;26.37;23.00;;;13.60;1.00;;;;;;5125253;27;20472;-76
2021/11/01 09:49:12;;;;;;;24.97;22.40;;;13.60;1.00;;;;;;5131995;27;20448;-75
2021/11/01 09:51:39;;;;;;;27.33;24.43;;;13.60;1.00;;;;;;5144009;27;20456;-75
2021/11/01 09:54:07;;;;;;;27.77;24.17;;;13.70;1.00;;;;;;5135594;27;20434;-78
2021/11/01 09:56:46;;;;;;;27.30;23.67;;;13.70;1.00;;;;;;5128893;27;21034;-77
2021/11/01 09:59:12;;;;;;;25.40;22.70;;;13.70;1.00;;;;;;5112077;27;20441;-75
2021/11/01 10:01:39;;;;;;;24.40;21.80;;;13.80;1.00;;;;;;5126194;27;22032;-76
2021/11/01 10:04:16;;;;;;;24.30;21.70;;;13.80;1.00;;;;;;5111027;27;21379;-75
2021/11/01 10:06:43;;;;;;;25.40;22.67;;;13.90;1.00;;;;;;5129854;27;20416;-75
2021/11/01 10:09:13;;;;;;;25.47;22.17;;;14.00;1.00;;;;;;5127557;27;20463;-78
2021/11/01 10:11:44;;;;;;;27.10;24.17;;;14.20;1.00;;;;;;5128533;27;20463;-76
2021/11/01 10:14:12;;;;;;;24.30;21.73;;;14.10;1.00;;;;;;5130895;27;24608;-77
2021/11/01 10:19:29;;;;;;;24.70;22.20;;;14.20;1.00;;;;;;5126469;27;21449;-76
2021/11/01 10:21:59;;;;;;;25.57;22.90;;;14.20;1.00;;;;;;5132650;27;20470;-77
2021/11/01 10:24:28;;;;;;;23.43;20.90;;;14.20;1.00;;;;;;5129521;27;20501;-76
2021/11/01 10:26:58;;;;;;;26.50;22.90;;;14.20;1.00;;;;;;5128153;27;20473;-77
2021/11/01 10:29:24;;;;;;;24.97;21.97;;;14.10;1.00;;;;;;5128379;27;21450;-75
2021/11/01 10:31:51;;;;;;;25.23;22.63;;;14.00;1.00;;;;;;5130703;27;20441;-76
2021/11/01 10:34:25;;;;;;;25.80;22.13;;;13.90;1.00;;;;;;5128417;27;20449;-77
2021/11/01 10:36:56;;;;;;;25.70;22.77;;;13.80;1.00;;;;;;5124090;27;20431;-77
2021/11/01 10:39:24;;;;;;;24.57;21.60;;;13.70;1.00;;;;;;5122070;27;20467;-77
2021/11/01 10:41:55;;;;;;;25.53;21.73;;;13.60;1.00;;;;;;5114587;27;20494;-75
2021/11/01 10:44:50;;;;;;;25.37;22.73;;;13.50;1.00;;;;;;5127244;27;20420;-77
2021/11/01 10:47:39;;;;;;;26.57;22.17;;;13.50;1.00;;;;;;5120804;27;20461;-78
2021/11/01 10:59:09;;;;;;;24.50;21.87;;;13.70;1.00;;;;;;5122732;27;20421;-78
2021/11/01 11:12:50;;;;;;;23.90;18.40;;;14.10;1.00;;;;;;5111720;27;20472;-77
2021/11/01 11:15:18;;;;;;;22.40;19.20;;;14.10;1.00;;;;;;5119720;27;21063;-76
2021/11/01 11:17:50;;;;;;;23.77;18.70;;;14.20;1.00;;;;;;5120495;27;20776;-75
2021/11/01 11:20:27;;;;;;;20.53;18.53;;;14.30;1.00;;;;;;5119868;27;21530;-77
2021/11/01 11:23:25;;;;;;;21.33;18.20;;;14.30;1.00;;;;;;5121935;27;20491;-77
2021/11/01 11:29:05;;;;;;;25.43;19.13;;;14.40;1.00;;;;;;5122313;27;20607;-75
2021/11/01 11:32:07;;;;;;;21.80;18.30;;;14.50;1.00;;;;;;5119863;27;21040;-74
2021/11/01 11:38:09;;;;;;;27.00;19.07;;;14.70;1.00;;;;;;5128186;27;20451;-77
2021/11/01 11:43:35;;;;;;;20.27;16.87;;;14.70;1.00;;;;;;5120237;27;20459;-76
2021/11/01 11:48:49;;;;;;;18.70;16.80;;;14.60;1.00;;;;;;5123692;27;20421;-76
2021/11/01 11:51:16;;;;;;;21.33;18.80;;;14.50;1.00;;;;;;5123972;27;21330;-77
2021/11/01 11:53:57;;;;;;;21.40;18.00;;;14.50;1.00;;;;;;5120585;27;20508;-75
2021/11/01 11:56:29;;;;;;;20.40;17.30;;;14.60;1.00;;;;;;5135054;27;21158;-76
2021/11/01 11:58:59;;;;;;;20.20;17.00;;;14.60;1.00;;;;;;5118362;27;21400;-75
2021/11/01 12:01:28;;;;;;;20.03;17.53;;;14.60;1.00;;;;;;5125693;27;21396;-75
2021/11/01 12:03:56;;;;;;;25.60;18.20;;;14.50;1.00;;;;;;5125104;27;20445;-77
2021/11/01 12:06:43;;;;;;;18.80;16.77;;;14.30;1.00;;;;;;5129152;27;20460;-76
2021/11/01 12:09:13;;;;;;;19.47;17.40;;;14.20;1.00;;;;;;5125740;27;20550;-77
2021/11/01 12:11:56;;;;;;;22.27;19.50;;;14.10;1.00;;;;;;5121632;27;20565;-77
2021/11/01 12:14:40;;;;;;;22.53;18.63;;;14.00;1.00;;;;;;5118898;27;20554;-76
2021/11/01 12:17:10;;;;;;;23.00;18.93;;;14.00;1.00;;;;;;5125037;27;20443;-76
2021/11/01 12:19:38;;;;;;;19.60;17.00;;;13.90;1.00;;;;;;5119561;27;20478;-76
2021/11/01 12:22:12;;;;;;;17.83;15.60;;;13.90;1.00;;;;;;5122499;27;20459;-76
2021/11/01 12:24:46;;;;;;;24.73;16.87;;;13.90;1.00;;;;;;5112149;27;20448;-76
2021/11/01 12:27:13;;;;;;;19.70;17.53;;;14.00;1.00;;;;;;5125149;27;20479;-76
2021/11/01 12:29:41;;;;;;;23.20;19.27;;;14.00;1.00;;;;;;5121229;27;20440;-76
2021/11/01 12:32:12;;;;;;;20.43;17.93;;;14.10;1.00;;;;;;5121854;27;20461;-77
2021/11/01 12:34:43;;;;;;;22.40;19.77;;;14.10;1.00;;;;;;5120737;27;21034;-76
2021/11/01 12:37:18;;;;;;;24.30;18.43;;;14.10;1.00;;;;;;5126982;27;20449;-76
2021/11/01 12:39:49;;;;;;;21.17;18.43;;;14.10;1.00;;;;;;5122100;27;21013;-77
2021/11/01 12:42:39;;;;;;;21.20;19.00;;;14.10;1.00;;;;;;5119861;27;20534;-76
2021/11/01 12:58:56;;;;;;;18.50;16.50;;;14.00;1.00;;;;;;5117419;27;20454;-76
2021/11/01 13:01:25;;;;;;;20.13;16.73;;;13.90;1.00;;;;;;5121544;27;20444;-76
2021/11/01 13:03:54;;;;;;;18.80;16.17;;;13.90;1.00;;;;;;5091585;27;20536;-75
2021/11/01 13:06:34;;;;;;;22.03;16.83;;;13.80;1.00;;;;;;5116522;27;20442;-76
2021/11/01 13:09:07;;;;;;;20.20;16.13;;;13.70;1.00;;;;;;5119115;27;20472;-76
2021/11/01 13:11:43;;;;;;;17.13;15.30;;;13.70;1.00;;;;;;5116736;27;20432;-77
2021/11/01 13:14:29;;;;;;;18.00;16.17;;;13.60;1.00;;;;;;5116756;27;20589;-76
2021/11/01 13:19:49;;;;;;;15.80;14.00;;;13.60;1.00;;;;;;5115608;27;20460;-75
2021/11/01 13:22:21;;;;;;;14.63;13.13;;;13.50;1.00;;;;;;5123018;27;20437;-76
2021/11/01 13:24:55;;;;;;;16.53;14.10;;;13.50;1.00;;;;;;5120132;27;20451;-74
2021/11/01 13:27:35;;;;;;;16.70;13.27;;;13.60;1.00;;;;;;5115481;27;20608;-76
2021/11/01 13:36:07;;;;;;;13.57;11.90;;;13.80;1.00;;;;;;5114411;27;20474;-76
2021/11/01 13:38:34;;;;;;;15.37;12.07;;;13.80;1.00;;;;;;5115382;27;20443;-74
2021/11/01 13:41:00;;;;;;;13.60;11.80;;;13.80;1.00;;;;;;5109831;27;20495;-75
2021/11/01 13:43:30;;;;;;;14.50;12.53;;;13.70;1.00;;;;;;5114990;27;20449;-77
2021/11/01 13:45:59;;;;;;;14.00;11.03;;;13.60;1.00;;;;;;5124253;27;20420;-75
2021/11/01 13:48:30;;;;;;;11.47;9.87;;;13.60;1.00;;;;;;5121348;27;20464;-77
2021/11/01 13:51:08;;;;;;;10.97;9.80;;;13.50;1.00;;;;;;5126602;27;20558;-75
2021/11/01 13:53:41;;;;;;;10.10;8.23;;;13.50;1.00;;;;;;5114366;27;20463;-76
2021/11/01 13:56:26;;;;;;;10.80;8.37;;;13.40;1.00;;;;;;5115803;27;20436;-76
2021/11/01 13:58:58;;;;;;;12.30;8.70;;;13.30;1.00;;;;;;5127751;27;20442;-75
2021/11/01 14:01:42;;;;;;;8.03;6.30;;;13.20;1.00;;;;;;5131525;27;20475;-78
2021/11/01 14:12:42;;;;;;;7.63;5.43;;;12.70;1.00;;;;;;5118117;27;20506;-76
2021/11/01 14:15:14;;;;;;;8.17;6.33;;;12.60;1.00;;;;;;5111229;27;20517;-78
2021/11/01 14:28:54;;;;;;;10.10;6.37;;;12.10;1.00;;;;;;5112640;27;20511;-80
2021/11/01 14:34:31;;;;;;;8.53;6.07;;;11.90;1.00;;;;;;5120596;27;20460;-80
2021/11/01 15:02:14;;;;;;;8.90;4.20;;;11.40;1.00;;;;;;5129320;27;20995;-79
2021/11/01 15:07:48;;;;;;;6.03;3.83;;;11.40;1.00;;;;;;5120010;27;20590;-78
2021/11/01 15:10:55;;;;;;;5.57;4.30;;;11.30;1.00;;;;;;5131754;27;20393;-79
2021/11/01 15:13:36;;;;;;;5.60;3.70;;;11.30;1.00;;;;;;5138815;27;20602;-78
2021/11/01 15:16:27;;;;;;;4.50;3.10;;;11.30;1.00;;;;;;5114778;27;20524;-77
2021/11/01 15:19:05;;;;;;;5.80;3.60;;;11.30;1.00;;;;;;5123557;27;21010;-78
2021/11/01 15:21:37;;;;;;;7.97;3.40;;;11.20;1.00;;;;;;5119080;27;20453;-79
2021/11/01 15:24:15;;;;;;;5.73;3.73;;;11.20;1.00;;;;;;5127165;27;22636;-79
2021/11/01 15:32:42;;;;;;;5.17;3.60;;;11.20;1.00;;;;;;5087759;27;20448;-77
2021/11/01 15:38:10;;;;;;;4.57;3.53;;;11.10;1.00;;;;;;5117276;27;20435;-77
2021/11/01 16:16:44;;;;;;;8.57;6.20;;;11.00;1.00;;;;;;5113041;27;20451;-77
2021/11/01 16:19:11;;;;;;;8.27;5.57;;;11.00;1.00;;;;;;5123763;27;20585;-78
2021/11/01 16:21:38;;;;;;;5.90;5.30;;;11.10;1.00;;;;;;5116888;27;20464;-78
2021/11/01 16:24:05;;;;;;;7.07;4.70;;;11.10;1.00;;;;;;5126611;27;20444;-77
2021/11/01 16:26:35;;;;;;;7.13;5.07;;;11.00;1.00;;;;;;5126370;27;20442;-79
2021/11/01 16:29:06;;;;;;;6.60;5.47;;;11.10;1.00;;;;;;5126362;27;20479;-78
2021/11/01 16:31:45;;;;;;;8.87;5.30;;;11.00;1.00;;;;;;5121780;27;20546;-79
2021/11/01 16:34:16;;;;;;;7.10;5.43;;;11.00;1.00;;;;;;5123919;27;21247;-78
2021/11/01 16:39:47;;;;;;;7.80;5.87;;;11.00;1.00;;;;;;5125032;27;20456;-81
2021/11/01 16:42:15;;;;;;;6.87;5.70;;;11.00;1.00;;;;;;5125587;27;21302;-79
2021/11/01 16:44:43;;;;;;;7.37;5.63;;;11.00;1.00;;;;;;5123058;27;20455;-79
2021/11/01 16:47:12;;;;;;;7.37;5.50;;;11.00;1.00;;;;;;5129658;27;21075;-77
2021/11/01 16:49:40;;;;;;;7.10;5.93;;;10.90;1.00;;;;;;5130571;27;20560;-77
2021/11/01 16:52:14;;;;;;;7.93;6.30;;;11.00;1.00;;;;;;5132420;27;21706;-79
2021/11/01 16:54:42;;;;;;;7.60;6.10;;;11.00;1.00;;;;;;5127286;27;20470;-77
2021/11/01 16:57:14;;;;;;;10.17;6.50;;;11.00;1.00;;;;;;5150486;27;20451;-80
2021/11/01 16:59:48;;;;;;;6.87;5.73;;;11.00;1.00;;;;;;5125186;27;20460;-78
2021/11/01 17:02:31;;;;;;;7.33;5.90;;;10.90;1.00;;;;;;5130766;27;20470;-79
2021/11/01 17:05:03;;;;;;;8.03;6.70;;;10.90;1.00;;;;;;5129733;27;20455;-78
2021/11/01 17:07:38;;;;;;;8.47;6.20;;;10.90;1.00;;;;;;5138918;27;20429;-78
2021/11/01 17:10:25;;;;;;;9.43;5.87;;;10.90;1.00;;;;;;5142631;27;20458;-78
2021/11/01 17:21:33;;;;;;;8.67;6.43;;;10.90;1.00;;;;;;5139465;27;20541;-78
2021/11/01 17:27:03;;;;;;;7.17;5.50;;;10.90;1.00;;;;;;5110379;27;20467;-78
2021/11/01 17:35:28;;;;;;;6.33;5.70;;;10.80;1.00;;;;;;5111844;27;20433;-82
2021/11/01 17:38:43;;;;;;;8.43;6.73;;;10.90;1.00;;;;;;5157746;27;20432;-76
2021/11/01 18:51:08;;;;;;;4.03;3.33;;;11.00;1.00;;;;;;5151298;27;20456;-80
2021/11/01 18:53:36;;;;;;;4.63;3.80;;;11.10;1.00;;;;;;5137186;27;20455;-79
2021/11/01 18:56:06;;;;;;;5.30;3.10;;;11.10;1.00;;;;;;5112820;27;20466;-79
2021/11/01 18:58:39;;;;;;;3.77;3.20;;;11.10;1.00;;;;;;5135355;27;20493;-80
2021/11/01 19:01:09;;;;;;;7.80;3.60;;;11.10;1.00;;;;;;5120070;27;20505;-81
2021/11/01 19:03:42;;;;;;;3.97;2.80;;;11.10;1.00;;;;;;5141206;27;20459;-81
2021/11/01 19:06:20;;;;;;;7.20;4.40;;;11.00;1.00;;;;;;5135988;27;20420;-80
2021/11/01 19:08:56;;;;;;;7.07;3.80;;;11.00;1.00;;;;;;5137882;27;20455;-80
2021/11/01 19:14:52;;;;;;;3.70;3.10;;;11.00;1.00;;;;;;5142388;27;20583;-79
2021/11/01 20:04:48;;;;;;;4.70;3.40;;;10.80;1.00;;;;;;5141027;27;20482;-81
2021/11/01 20:10:39;;;;;;;5.53;3.83;;;10.80;1.00;;;;;;5141167;27;20562;-81
2021/11/01 20:13:17;;;;;;;8.43;4.40;;;10.80;1.00;;;;;;5138867;27;20548;-80
2021/11/01 20:16:10;;;;;;;5.67;3.50;;;10.80;1.00;;;;;;5148013;27;20401;-82
2021/11/01 21:25:21;;;;;;;4.47;3.33;;;10.30;1.00;;;;;;5113411;27;20453;-89
2021/11/01 21:27:48;;;;;;;6.47;3.43;;;10.30;1.00;;;;;;5113621;27;20558;-86
2021/11/01 21:30:17;;;;;;;4.70;3.93;;;10.30;1.00;;;;;;5118588;27;20489;-86
2021/11/01 21:32:45;;;;;;;5.53;3.90;;;10.20;1.00;;;;;;5105665;27;20467;-86
2021/11/01 21:35:15;;;;;;;4.63;3.60;;;10.20;1.00;;;;;;5122056;27;20441;-86
2021/11/01 21:37:42;;;;;;;6.30;4.07;;;10.10;1.00;;;;;;5141271;27;20459;-87
2021/11/01 21:40:12;;;;;;;5.18;3.50;;;10.10;1.00;;;;;;5139245;27;20658;-85